sensor_id;sensor_type;location;lat;lon;timestamp;P1;durP1;ratioP1;P2;durP2;ratioP2
52590;SDS011;38483;42.620;25.394;2023-06-26T00:00:39;6.70;;;4.40;;
52590;SDS011;38483;42.620;25.394;2023-06-26T00:03:08;6.20;;;4.40;;
52590;SDS011;38483;42.620;25.394;2023-06-26T00:06:29;7.47;;;4.60;;
52590;SDS011;38483;42.620;25.394;2023-06-26T00:10:08;8.67;;;4.90;;
52590;SDS011;38483;42.620;25.394;2023-06-26T00:13:33;6.17;;;4.47;;
52590;SDS011;38483;42.620;25.394;2023-06-26T00:16:53;7.47;;;5.20;;
52590;SDS011;38483;42.620;25.394;2023-06-26T00:20:17;9.30;;;5.23;;
52590;SDS011;38483;42.620;25.394;2023-06-26T00:23:38;6.47;;;5.00;;
52590;SDS011;38483;42.620;25.394;2023-06-26T00:27:03;8.90;;;5.20;;
52590;SDS011;38483;42.620;25.394;2023-06-26T00:30:25;8.10;;;5.10;;
52590;SDS011;38483;42.620;25.394;2023-06-26T00:33:45;9.57;;;5.40;;
52590;SDS011;38483;42.620;25.394;2023-06-26T00:37:08;8.17;;;4.50;;
52590;SDS011;38483;42.620;25.394;2023-06-26T00:40:30;8.70;;;4.83;;
52590;SDS011;38483;42.620;25.394;2023-06-26T00:43:52;8.87;;;3.50;;
52590;SDS011;38483;42.620;25.394;2023-06-26T00:47:14;4.67;;;3.50;;
52590;SDS011;38483;42.620;25.394;2023-06-26T00:50:35;3.67;;;2.47;;
52590;SDS011;38483;42.620;25.394;2023-06-26T00:53:59;3.93;;;2.73;;
52590;SDS011;38483;42.620;25.394;2023-06-26T00:57:20;4.53;;;2.23;;
52590;SDS011;38483;42.620;25.394;2023-06-26T01:00:41;3.47;;;2.20;;
52590;SDS011;38483;42.620;25.394;2023-06-26T01:04:10;2.40;;;2.17;;
52590;SDS011;38483;42.620;25.394;2023-06-26T01:07:35;3.80;;;2.27;;
52590;SDS011;38483;42.620;25.394;2023-06-26T01:10:57;3.60;;;2.60;;
52590;SDS011;38483;42.620;25.394;2023-06-26T01:14:20;3.40;;;2.17;;
52590;SDS011;38483;42.620;25.394;2023-06-26T01:17:41;2.97;;;2.17;;
52590;SDS011;38483;42.620;25.394;2023-06-26T01:21:05;2.87;;;1.93;;
52590;SDS011;38483;42.620;25.394;2023-06-26T01:24:29;4.07;;;2.10;;
52590;SDS011;38483;42.620;25.394;2023-06-26T01:27:48;6.17;;;2.30;;
52590;SDS011;38483;42.620;25.394;2023-06-26T01:31:07;4.27;;;2.33;;
52590;SDS011;38483;42.620;25.394;2023-06-26T01:34:29;3.43;;;2.37;;
52590;SDS011;38483;42.620;25.394;2023-06-26T01:37:52;3.90;;;2.30;;
52590;SDS011;38483;42.620;25.394;2023-06-26T01:41:13;3.40;;;2.73;;
52590;SDS011;38483;42.620;25.394;2023-06-26T01:44:35;4.87;;;2.70;;
52590;SDS011;38483;42.620;25.394;2023-06-26T01:47:55;3.93;;;2.50;;
52590;SDS011;38483;42.620;25.394;2023-06-26T01:51:16;4.97;;;2.50;;
52590;SDS011;38483;42.620;25.394;2023-06-26T01:54:39;2.53;;;2.30;;
52590;SDS011;38483;42.620;25.394;2023-06-26T01:58:00;4.57;;;3.40;;
52590;SDS011;38483;42.620;25.394;2023-06-26T02:01:21;3.63;;;2.77;;
52590;SDS011;38483;42.620;25.394;2023-06-26T02:04:45;3.80;;;2.70;;
52590;SDS011;38483;42.620;25.394;2023-06-26T02:08:12;4.50;;;2.83;;
52590;SDS011;38483;42.620;25.394;2023-06-26T02:10:48;3.90;;;2.80;;
52590;SDS011;38483;42.620;25.394;2023-06-26T02:13:17;4.03;;;2.70;;
52590;SDS011;38483;42.620;25.394;2023-06-26T02:15:44;5.17;;;2.97;;
52590;SDS011;38483;42.620;25.394;2023-06-26T02:18:13;3.90;;;2.90;;
52590;SDS011;38483;42.620;25.394;2023-06-26T02:20:42;4.27;;;2.97;;
52590;SDS011;38483;42.620;25.394;2023-06-26T02:23:10;4.53;;;3.23;;
52590;SDS011;38483;42.620;25.394;2023-06-26T02:26:32;3.47;;;2.50;;
52590;SDS011;38483;42.620;25.394;2023-06-26T02:29:53;5.07;;;2.83;;
52590;SDS011;38483;42.620;25.394;2023-06-26T02:33:15;5.57;;;2.80;;
52590;SDS011;38483;42.620;25.394;2023-06-26T02:36:37;5.00;;;3.10;;
52590;SDS011;38483;42.620;25.394;2023-06-26T02:39:58;6.10;;;3.30;;
52590;SDS011;38483;42.620;25.394;2023-06-26T02:43:20;3.73;;;3.00;;
52590;SDS011;38483;42.620;25.394;2023-06-26T02:46:40;4.83;;;3.40;;
52590;SDS011;38483;42.620;25.394;2023-06-26T02:50:02;5.77;;;3.37;;
52590;SDS011;38483;42.620;25.394;2023-06-26T02:53:30;7.97;;;4.33;;
52590;SDS011;38483;42.620;25.394;2023-06-26T02:56:54;7.17;;;3.93;;
52590;SDS011;38483;42.620;25.394;2023-06-26T03:00:15;6.47;;;4.30;;
52590;SDS011;38483;42.620;25.394;2023-06-26T03:03:40;8.03;;;4.67;;
52590;SDS011;38483;42.620;25.394;2023-06-26T03:07:04;6.93;;;4.03;;
52590;SDS011;38483;42.620;25.394;2023-06-26T03:09:49;5.27;;;4.00;;
52590;SDS011;38483;42.620;25.394;2023-06-26T03:13:12;5.83;;;4.07;;
52590;SDS011;38483;42.620;25.394;2023-06-26T03:16:33;6.93;;;4.40;;
52590;SDS011;38483;42.620;25.394;2023-06-26T03:20:00;6.93;;;3.93;;
52590;SDS011;38483;42.620;25.394;2023-06-26T03:23:23;6.47;;;4.30;;
52590;SDS011;38483;42.620;25.394;2023-06-26T03:26:44;5.47;;;4.27;;
52590;SDS011;38483;42.620;25.394;2023-06-26T03:30:06;6.17;;;4.07;;
52590;SDS011;38483;42.620;25.394;2023-06-26T03:33:27;7.23;;;4.47;;
52590;SDS011;38483;42.620;25.394;2023-06-26T03:36:48;7.03;;;4.30;;
52590;SDS011;38483;42.620;25.394;2023-06-26T03:40:09;6.03;;;4.60;;
52590;SDS011;38483;42.620;25.394;2023-06-26T03:43:31;5.67;;;4.87;;
52590;SDS011;38483;42.620;25.394;2023-06-26T03:46:52;7.30;;;4.97;;
52590;SDS011;38483;42.620;25.394;2023-06-26T03:50:16;6.97;;;4.37;;
52590;SDS011;38483;42.620;25.394;2023-06-26T03:53:34;6.60;;;4.40;;
52590;SDS011;38483;42.620;25.394;2023-06-26T03:56:56;8.67;;;4.27;;
52590;SDS011;38483;42.620;25.394;2023-06-26T04:00:17;6.73;;;4.47;;
52590;SDS011;38483;42.620;25.394;2023-06-26T04:03:38;8.93;;;4.60;;
52590;SDS011;38483;42.620;25.394;2023-06-26T04:06:59;8.90;;;4.03;;
52590;SDS011;38483;42.620;25.394;2023-06-26T04:10:21;8.03;;;4.20;;
52590;SDS011;38483;42.620;25.394;2023-06-26T04:13:44;7.47;;;4.13;;
52590;SDS011;38483;42.620;25.394;2023-06-26T04:17:05;7.03;;;4.03;;
52590;SDS011;38483;42.620;25.394;2023-06-26T04:20:26;4.83;;;4.00;;
52590;SDS011;38483;42.620;25.394;2023-06-26T04:23:50;6.93;;;4.30;;
52590;SDS011;38483;42.620;25.394;2023-06-26T04:27:11;9.20;;;4.67;;
52590;SDS011;38483;42.620;25.394;2023-06-26T04:30:33;7.43;;;4.97;;
52590;SDS011;38483;42.620;25.394;2023-06-26T04:33:54;5.00;;;3.90;;
52590;SDS011;38483;42.620;25.394;2023-06-26T04:37:17;6.13;;;3.87;;
52590;SDS011;38483;42.620;25.394;2023-06-26T04:40:37;5.90;;;3.60;;
52590;SDS011;38483;42.620;25.394;2023-06-26T04:43:59;6.37;;;3.73;;
52590;SDS011;38483;42.620;25.394;2023-06-26T04:47:21;4.93;;;3.53;;
52590;SDS011;38483;42.620;25.394;2023-06-26T04:50:42;4.93;;;3.50;;
52590;SDS011;38483;42.620;25.394;2023-06-26T04:54:03;6.53;;;3.30;;
52590;SDS011;38483;42.620;25.394;2023-06-26T04:57:23;6.77;;;3.90;;
52590;SDS011;38483;42.620;25.394;2023-06-26T05:00:45;6.43;;;4.17;;
52590;SDS011;38483;42.620;25.394;2023-06-26T05:04:06;8.23;;;4.23;;
52590;SDS011;38483;42.620;25.394;2023-06-26T05:07:30;8.63;;;4.63;;
52590;SDS011;38483;42.620;25.394;2023-06-26T05:10:54;6.90;;;4.33;;
52590;SDS011;38483;42.620;25.394;2023-06-26T05:14:14;7.60;;;4.63;;
52590;SDS011;38483;42.620;25.394;2023-06-26T05:17:35;9.47;;;4.03;;
52590;SDS011;38483;42.620;25.394;2023-06-26T05:20:56;8.00;;;3.90;;
52590;SDS011;38483;42.620;25.394;2023-06-26T05:24:17;7.83;;;3.80;;
52590;SDS011;38483;42.620;25.394;2023-06-26T05:27:40;5.47;;;3.30;;
52590;SDS011;38483;42.620;25.394;2023-06-26T05:31:01;6.00;;;2.87;;
52590;SDS011;38483;42.620;25.394;2023-06-26T05:34:26;5.67;;;3.50;;
52590;SDS011;38483;42.620;25.394;2023-06-26T05:37:48;8.97;;;4.47;;
52590;SDS011;38483;42.620;25.394;2023-06-26T05:41:07;6.87;;;4.33;;
52590;SDS011;38483;42.620;25.394;2023-06-26T05:44:28;5.57;;;3.00;;
52590;SDS011;38483;42.620;25.394;2023-06-26T05:47:51;4.70;;;3.10;;
52590;SDS011;38483;42.620;25.394;2023-06-26T05:51:12;5.23;;;3.80;;
52590;SDS011;38483;42.620;25.394;2023-06-26T05:54:34;5.17;;;3.10;;
52590;SDS011;38483;42.620;25.394;2023-06-26T05:57:56;4.17;;;3.17;;
52590;SDS011;38483;42.620;25.394;2023-06-26T06:01:19;6.37;;;3.83;;
52590;SDS011;38483;42.620;25.394;2023-06-26T06:04:40;6.63;;;3.80;;
52590;SDS011;38483;42.620;25.394;2023-06-26T06:08:02;6.47;;;4.00;;
52590;SDS011;38483;42.620;25.394;2023-06-26T06:11:25;5.13;;;3.10;;
52590;SDS011;38483;42.620;25.394;2023-06-26T06:14:51;5.13;;;3.73;;
52590;SDS011;38483;42.620;25.394;2023-06-26T06:18:14;4.67;;;3.00;;
52590;SDS011;38483;42.620;25.394;2023-06-26T06:21:36;5.73;;;3.37;;
52590;SDS011;38483;42.620;25.394;2023-06-26T06:24:58;4.83;;;2.80;;
52590;SDS011;38483;42.620;25.394;2023-06-26T06:28:20;5.30;;;3.10;;
52590;SDS011;38483;42.620;25.394;2023-06-26T06:31:41;7.77;;;3.57;;
52590;SDS011;38483;42.620;25.394;2023-06-26T06:35:01;4.93;;;3.10;;
52590;SDS011;38483;42.620;25.394;2023-06-26T06:38:22;4.77;;;4.27;;
52590;SDS011;38483;42.620;25.394;2023-06-26T06:41:45;6.80;;;4.43;;
52590;SDS011;38483;42.620;25.394;2023-06-26T06:45:09;6.60;;;4.00;;
52590;SDS011;38483;42.620;25.394;2023-06-26T06:48:29;4.80;;;3.97;;
52590;SDS011;38483;42.620;25.394;2023-06-26T06:51:53;7.90;;;4.50;;
52590;SDS011;38483;42.620;25.394;2023-06-26T06:55:14;6.70;;;4.20;;
52590;SDS011;38483;42.620;25.394;2023-06-26T06:58:35;5.93;;;3.97;;
52590;SDS011;38483;42.620;25.394;2023-06-26T07:02:07;8.33;;;5.87;;
52590;SDS011;38483;42.620;25.394;2023-06-26T07:05:28;8.83;;;4.77;;
52590;SDS011;38483;42.620;25.394;2023-06-26T07:09:27;7.30;;;5.10;;
52590;SDS011;38483;42.620;25.394;2023-06-26T07:12:23;7.93;;;5.07;;
52590;SDS011;38483;42.620;25.394;2023-06-26T07:15:47;12.50;;;5.77;;
52590;SDS011;38483;42.620;25.394;2023-06-26T07:19:09;8.23;;;4.50;;
52590;SDS011;38483;42.620;25.394;2023-06-26T07:22:30;6.77;;;4.33;;
52590;SDS011;38483;42.620;25.394;2023-06-26T07:25:51;5.87;;;4.50;;
52590;SDS011;38483;42.620;25.394;2023-06-26T07:29:12;6.93;;;4.53;;
52590;SDS011;38483;42.620;25.394;2023-06-26T07:32:35;4.67;;;3.63;;
52590;SDS011;38483;42.620;25.394;2023-06-26T07:35:56;8.17;;;4.60;;
52590;SDS011;38483;42.620;25.394;2023-06-26T07:39:19;6.43;;;3.37;;
52590;SDS011;38483;42.620;25.394;2023-06-26T07:42:40;4.60;;;3.47;;
52590;SDS011;38483;42.620;25.394;2023-06-26T07:46:00;4.07;;;2.90;;
52590;SDS011;38483;42.620;25.394;2023-06-26T07:49:22;4.10;;;2.53;;
52590;SDS011;38483;42.620;25.394;2023-06-26T07:52:43;3.40;;;2.70;;
52590;SDS011;38483;42.620;25.394;2023-06-26T07:56:04;3.70;;;2.37;;
52590;SDS011;38483;42.620;25.394;2023-06-26T07:59:26;4.17;;;2.50;;
52590;SDS011;38483;42.620;25.394;2023-06-26T08:02:47;4.30;;;2.33;;
52590;SDS011;38483;42.620;25.394;2023-06-26T08:06:08;4.10;;;2.67;;
52590;SDS011;38483;42.620;25.394;2023-06-26T08:09:30;3.57;;;2.10;;
52590;SDS011;38483;42.620;25.394;2023-06-26T08:12:51;1.60;;;1.13;;
52590;SDS011;38483;42.620;25.394;2023-06-26T08:16:12;4.43;;;2.27;;
52590;SDS011;38483;42.620;25.394;2023-06-26T08:19:33;3.67;;;2.80;;
52590;SDS011;38483;42.620;25.394;2023-06-26T08:22:54;2.20;;;1.70;;
52590;SDS011;38483;42.620;25.394;2023-06-26T08:26:15;2.53;;;1.30;;
52590;SDS011;38483;42.620;25.394;2023-06-26T08:29:37;3.03;;;1.50;;
52590;SDS011;38483;42.620;25.394;2023-06-26T08:32:58;1.60;;;1.50;;
52590;SDS011;38483;42.620;25.394;2023-06-26T08:36:20;2.00;;;1.60;;
52590;SDS011;38483;42.620;25.394;2023-06-26T08:39:41;2.30;;;1.70;;
52590;SDS011;38483;42.620;25.394;2023-06-26T08:43:02;2.47;;;1.63;;
52590;SDS011;38483;42.620;25.394;2023-06-26T08:46:22;4.07;;;3.07;;
52590;SDS011;38483;42.620;25.394;2023-06-26T08:49:50;4.03;;;2.17;;
52590;SDS011;38483;42.620;25.394;2023-06-26T08:53:09;4.97;;;3.33;;
52590;SDS011;38483;42.620;25.394;2023-06-26T08:56:51;3.77;;;2.60;;
52590;SDS011;38483;42.620;25.394;2023-06-26T08:59:53;2.63;;;2.43;;
52590;SDS011;38483;42.620;25.394;2023-06-26T09:03:16;4.67;;;3.53;;
52590;SDS011;38483;42.620;25.394;2023-06-26T09:06:37;3.83;;;3.43;;
52590;SDS011;38483;42.620;25.394;2023-06-26T09:09:58;2.40;;;1.93;;
52590;SDS011;38483;42.620;25.394;2023-06-26T09:13:18;2.03;;;1.83;;
52590;SDS011;38483;42.620;25.394;2023-06-26T09:16:40;1.87;;;1.63;;
52590;SDS011;38483;42.620;25.394;2023-06-26T09:20:01;1.87;;;1.67;;
52590;SDS011;38483;42.620;25.394;2023-06-26T09:23:23;2.90;;;1.80;;
52590;SDS011;38483;42.620;25.394;2023-06-26T09:26:46;3.40;;;2.40;;
52590;SDS011;38483;42.620;25.394;2023-06-26T09:30:07;3.47;;;2.40;;
52590;SDS011;38483;42.620;25.394;2023-06-26T09:33:32;3.70;;;2.57;;
52590;SDS011;38483;42.620;25.394;2023-06-26T09:36:54;4.27;;;2.53;;
52590;SDS011;38483;42.620;25.394;2023-06-26T09:40:14;3.97;;;3.03;;
52590;SDS011;38483;42.620;25.394;2023-06-26T09:43:36;4.80;;;3.30;;
52590;SDS011;38483;42.620;25.394;2023-06-26T09:46:56;3.63;;;3.30;;
52590;SDS011;38483;42.620;25.394;2023-06-26T09:50:21;4.80;;;2.87;;
52590;SDS011;38483;42.620;25.394;2023-06-26T09:53:41;3.63;;;2.60;;
52590;SDS011;38483;42.620;25.394;2023-06-26T09:57:08;4.53;;;3.57;;
52590;SDS011;38483;42.620;25.394;2023-06-26T10:00:31;2.93;;;2.17;;
52590;SDS011;38483;42.620;25.394;2023-06-26T10:03:51;2.83;;;2.30;;
52590;SDS011;38483;42.620;25.394;2023-06-26T10:07:12;3.33;;;2.67;;
52590;SDS011;38483;42.620;25.394;2023-06-26T10:10:35;4.73;;;2.40;;
52590;SDS011;38483;42.620;25.394;2023-06-26T10:13:55;3.83;;;2.40;;
52590;SDS011;38483;42.620;25.394;2023-06-26T10:17:17;3.53;;;2.73;;
52590;SDS011;38483;42.620;25.394;2023-06-26T10:19:49;3.20;;;2.90;;
52590;SDS011;38483;42.620;25.394;2023-06-26T10:23:11;3.23;;;2.27;;
52590;SDS011;38483;42.620;25.394;2023-06-26T10:26:33;2.83;;;2.40;;
52590;SDS011;38483;42.620;25.394;2023-06-26T10:29:57;4.30;;;3.17;;
52590;SDS011;38483;42.620;25.394;2023-06-26T10:33:17;3.23;;;2.27;;
52590;SDS011;38483;42.620;25.394;2023-06-26T10:36:38;2.10;;;1.90;;
52590;SDS011;38483;42.620;25.394;2023-06-26T10:40:03;5.60;;;4.57;;
52590;SDS011;38483;42.620;25.394;2023-06-26T10:43:29;3.43;;;2.57;;
52590;SDS011;38483;42.620;25.394;2023-06-26T10:46:57;2.57;;;2.20;;
52590;SDS011;38483;42.620;25.394;2023-06-26T10:50:30;5.30;;;2.80;;
52590;SDS011;38483;42.620;25.394;2023-06-26T10:53:55;3.33;;;2.63;;
52590;SDS011;38483;42.620;25.394;2023-06-26T10:57:25;3.40;;;2.47;;
52590;SDS011;38483;42.620;25.394;2023-06-26T11:01:13;10.20;;;8.37;;
52590;SDS011;38483;42.620;25.394;2023-06-26T11:06:39;11.10;;;10.10;;
52590;SDS011;38483;42.620;25.394;2023-06-26T11:10:09;5.27;;;3.20;;
52590;SDS011;38483;42.620;25.394;2023-06-26T11:13:21;5.70;;;3.90;;
52590;SDS011;38483;42.620;25.394;2023-06-26T11:16:42;5.13;;;4.17;;
52590;SDS011;38483;42.620;25.394;2023-06-26T11:20:08;4.83;;;3.30;;
52590;SDS011;38483;42.620;25.394;2023-06-26T11:23:29;7.10;;;3.63;;
52590;SDS011;38483;42.620;25.394;2023-06-26T11:26:50;4.60;;;3.27;;
52590;SDS011;38483;42.620;25.394;2023-06-26T11:31:38;6.10;;;3.93;;
52590;SDS011;38483;42.620;25.394;2023-06-26T11:39:09;6.00;;;4.53;;
52590;SDS011;38483;42.620;25.394;2023-06-26T11:42:32;6.13;;;4.10;;
52590;SDS011;38483;42.620;25.394;2023-06-26T11:45:57;5.83;;;4.17;;
52590;SDS011;38483;42.620;25.394;2023-06-26T11:49:20;8.97;;;6.50;;
52590;SDS011;38483;42.620;25.394;2023-06-26T11:52:56;4.60;;;4.03;;
52590;SDS011;38483;42.620;25.394;2023-06-26T11:56:18;6.37;;;4.57;;
52590;SDS011;38483;42.620;25.394;2023-06-26T11:59:40;6.73;;;4.00;;
52590;SDS011;38483;42.620;25.394;2023-06-26T12:03:02;8.30;;;3.87;;
52590;SDS011;38483;42.620;25.394;2023-06-26T12:05:30;4.83;;;4.03;;
52590;SDS011;38483;42.620;25.394;2023-06-26T12:08:07;8.53;;;4.70;;
52590;SDS011;38483;42.620;25.394;2023-06-26T12:10:38;5.63;;;4.03;;
52590;SDS011;38483;42.620;25.394;2023-06-26T12:14:01;6.30;;;4.30;;
52590;SDS011;38483;42.620;25.394;2023-06-26T12:17:23;9.00;;;4.30;;
52590;SDS011;38483;42.620;25.394;2023-06-26T12:20:45;5.90;;;4.50;;
52590;SDS011;38483;42.620;25.394;2023-06-26T12:24:06;13.20;;;5.50;;
52590;SDS011;38483;42.620;25.394;2023-06-26T12:27:29;6.17;;;4.00;;
52590;SDS011;38483;42.620;25.394;2023-06-26T12:31:12;7.87;;;3.97;;
52590;SDS011;38483;42.620;25.394;2023-06-26T12:34:13;9.00;;;3.97;;
52590;SDS011;38483;42.620;25.394;2023-06-26T12:37:37;6.03;;;3.70;;
52590;SDS011;38483;42.620;25.394;2023-06-26T12:41:00;6.53;;;3.97;;
52590;SDS011;38483;42.620;25.394;2023-06-26T12:44:25;4.47;;;3.30;;
52590;SDS011;38483;42.620;25.394;2023-06-26T12:47:48;7.20;;;4.30;;
52590;SDS011;38483;42.620;25.394;2023-06-26T12:50:15;4.63;;;3.40;;
52590;SDS011;38483;42.620;25.394;2023-06-26T12:52:50;5.87;;;4.60;;
52590;SDS011;38483;42.620;25.394;2023-06-26T12:56:11;7.83;;;4.60;;
52590;SDS011;38483;42.620;25.394;2023-06-26T12:59:32;7.60;;;4.00;;
52590;SDS011;38483;42.620;25.394;2023-06-26T13:02:52;6.17;;;4.40;;
52590;SDS011;38483;42.620;25.394;2023-06-26T13:06:17;11.17;;;4.90;;
52590;SDS011;38483;42.620;25.394;2023-06-26T13:09:38;5.10;;;3.50;;
52590;SDS011;38483;42.620;25.394;2023-06-26T13:12:59;5.50;;;3.70;;
52590;SDS011;38483;42.620;25.394;2023-06-26T13:16:19;7.03;;;3.87;;
52590;SDS011;38483;42.620;25.394;2023-06-26T13:19:41;5.63;;;3.70;;
52590;SDS011;38483;42.620;25.394;2023-06-26T13:23:07;5.53;;;3.50;;
52590;SDS011;38483;42.620;25.394;2023-06-26T13:25:34;7.20;;;3.70;;
52590;SDS011;38483;42.620;25.394;2023-06-26T13:28:01;4.30;;;3.57;;
52590;SDS011;38483;42.620;25.394;2023-06-26T13:31:23;5.70;;;3.80;;
52590;SDS011;38483;42.620;25.394;2023-06-26T13:34:44;6.53;;;3.80;;
52590;SDS011;38483;42.620;25.394;2023-06-26T13:38:05;6.00;;;4.17;;
52590;SDS011;38483;42.620;25.394;2023-06-26T13:41:26;5.77;;;4.10;;
52590;SDS011;38483;42.620;25.394;2023-06-26T13:44:46;5.30;;;3.57;;
52590;SDS011;38483;42.620;25.394;2023-06-26T13:48:08;5.67;;;3.80;;
52590;SDS011;38483;42.620;25.394;2023-06-26T13:51:30;7.70;;;4.40;;
52590;SDS011;38483;42.620;25.394;2023-06-26T13:54:51;6.93;;;4.87;;
52590;SDS011;38483;42.620;25.394;2023-06-26T13:58:14;6.77;;;4.50;;
52590;SDS011;38483;42.620;25.394;2023-06-26T14:01:35;5.23;;;3.77;;
52590;SDS011;38483;42.620;25.394;2023-06-26T14:04:02;5.77;;;3.03;;
52590;SDS011;38483;42.620;25.394;2023-06-26T14:06:32;5.80;;;3.33;;
52590;SDS011;38483;42.620;25.394;2023-06-26T14:09:07;5.43;;;3.23;;
52590;SDS011;38483;42.620;25.394;2023-06-26T14:11:36;4.13;;;2.80;;
52590;SDS011;38483;42.620;25.394;2023-06-26T14:14:03;5.77;;;3.37;;
52590;SDS011;38483;42.620;25.394;2023-06-26T14:16:31;3.37;;;2.70;;
52590;SDS011;38483;42.620;25.394;2023-06-26T14:18:59;4.30;;;2.83;;
52590;SDS011;38483;42.620;25.394;2023-06-26T14:21:27;7.13;;;3.53;;
52590;SDS011;38483;42.620;25.394;2023-06-26T14:23:55;3.77;;;3.30;;
52590;SDS011;38483;42.620;25.394;2023-06-26T14:26:22;5.10;;;2.90;;
52590;SDS011;38483;42.620;25.394;2023-06-26T14:28:49;8.47;;;3.43;;
52590;SDS011;38483;42.620;25.394;2023-06-26T14:31:19;3.57;;;3.10;;
52590;SDS011;38483;42.620;25.394;2023-06-26T14:33:47;4.20;;;3.00;;
52590;SDS011;38483;42.620;25.394;2023-06-26T14:36:14;5.93;;;3.30;;
52590;SDS011;38483;42.620;25.394;2023-06-26T14:38:43;5.37;;;3.40;;
52590;SDS011;38483;42.620;25.394;2023-06-26T14:41:12;5.40;;;3.40;;
52590;SDS011;38483;42.620;25.394;2023-06-26T14:43:39;5.10;;;3.40;;
52590;SDS011;38483;42.620;25.394;2023-06-26T14:46:08;5.97;;;3.50;;
52590;SDS011;38483;42.620;25.394;2023-06-26T14:48:39;2.27;;;1.80;;
52590;SDS011;38483;42.620;25.394;2023-06-26T14:51:07;1.30;;;1.20;;
52590;SDS011;38483;42.620;25.394;2023-06-26T14:53:34;2.07;;;1.07;;
52590;SDS011;38483;42.620;25.394;2023-06-26T14:56:01;0.80;;;0.80;;
52590;SDS011;38483;42.620;25.394;2023-06-26T14:58:30;0.70;;;0.70;;
52590;SDS011;38483;42.620;25.394;2023-06-26T15:00:58;1.60;;;1.10;;
52590;SDS011;38483;42.620;25.394;2023-06-26T15:03:25;1.53;;;1.00;;
52590;SDS011;38483;42.620;25.394;2023-06-26T15:05:55;1.40;;;1.03;;
52590;SDS011;38483;42.620;25.394;2023-06-26T15:08:22;1.30;;;1.07;;
52590;SDS011;38483;42.620;25.394;2023-06-26T15:11:44;1.17;;;0.97;;
52590;SDS011;38483;42.620;25.394;2023-06-26T15:15:05;2.87;;;1.30;;
52590;SDS011;38483;42.620;25.394;2023-06-26T15:18:26;1.33;;;1.03;;
52590;SDS011;38483;42.620;25.394;2023-06-26T15:20:55;1.80;;;1.00;;
52590;SDS011;38483;42.620;25.394;2023-06-26T15:24:16;1.30;;;1.20;;
52590;SDS011;38483;42.620;25.394;2023-06-26T15:27:39;1.63;;;1.20;;
52590;SDS011;38483;42.620;25.394;2023-06-26T15:31:00;1.47;;;1.20;;
52590;SDS011;38483;42.620;25.394;2023-06-26T15:34:22;3.23;;;1.60;;
52590;SDS011;38483;42.620;25.394;2023-06-26T15:37:46;1.83;;;1.40;;
52590;SDS011;38483;42.620;25.394;2023-06-26T15:41:07;2.27;;;1.10;;
52590;SDS011;38483;42.620;25.394;2023-06-26T15:44:30;1.87;;;1.10;;
52590;SDS011;38483;42.620;25.394;2023-06-26T15:47:52;2.20;;;1.37;;
52590;SDS011;38483;42.620;25.394;2023-06-26T15:51:14;2.83;;;1.10;;
52590;SDS011;38483;42.620;25.394;2023-06-26T15:54:34;2.77;;;1.60;;
52590;SDS011;38483;42.620;25.394;2023-06-26T15:57:55;1.13;;;1.03;;
52590;SDS011;38483;42.620;25.394;2023-06-26T16:01:21;1.40;;;1.30;;
52590;SDS011;38483;42.620;25.394;2023-06-26T16:04:44;2.93;;;2.20;;
52590;SDS011;38483;42.620;25.394;2023-06-26T16:08:05;4.30;;;2.50;;
52590;SDS011;38483;42.620;25.394;2023-06-26T16:11:28;2.90;;;1.70;;
52590;SDS011;38483;42.620;25.394;2023-06-26T16:14:49;2.50;;;2.00;;
52590;SDS011;38483;42.620;25.394;2023-06-26T16:18:10;2.87;;;1.93;;
52590;SDS011;38483;42.620;25.394;2023-06-26T16:21:33;2.83;;;1.70;;
52590;SDS011;38483;42.620;25.394;2023-06-26T16:24:42;2.80;;;2.10;;
52590;SDS011;38483;42.620;25.394;2023-06-26T16:27:09;3.47;;;1.83;;
52590;SDS011;38483;42.620;25.394;2023-06-26T16:30:31;5.53;;;3.50;;
52590;SDS011;38483;42.620;25.394;2023-06-26T16:33:52;5.53;;;2.97;;
52590;SDS011;38483;42.620;25.394;2023-06-26T16:37:12;5.03;;;2.50;;
52590;SDS011;38483;42.620;25.394;2023-06-26T16:40:33;4.97;;;2.50;;
52590;SDS011;38483;42.620;25.394;2023-06-26T16:43:54;3.67;;;2.93;;
52590;SDS011;38483;42.620;25.394;2023-06-26T16:47:15;3.60;;;2.10;;
52590;SDS011;38483;42.620;25.394;2023-06-26T16:50:35;2.33;;;2.00;;
52590;SDS011;38483;42.620;25.394;2023-06-26T16:53:57;3.17;;;1.93;;
52590;SDS011;38483;42.620;25.394;2023-06-26T16:57:19;3.63;;;2.10;;
52590;SDS011;38483;42.620;25.394;2023-06-26T17:00:42;2.30;;;2.10;;
52590;SDS011;38483;42.620;25.394;2023-06-26T17:03:11;4.00;;;2.30;;
52590;SDS011;38483;42.620;25.394;2023-06-26T17:05:49;5.77;;;2.63;;
52590;SDS011;38483;42.620;25.394;2023-06-26T17:08:17;6.33;;;2.40;;
52590;SDS011;38483;42.620;25.394;2023-06-26T17:10:47;3.00;;;2.33;;
52590;SDS011;38483;42.620;25.394;2023-06-26T17:13:14;5.30;;;2.57;;
52590;SDS011;38483;42.620;25.394;2023-06-26T17:15:44;5.73;;;2.80;;
52590;SDS011;38483;42.620;25.394;2023-06-26T17:18:13;4.83;;;2.83;;
52590;SDS011;38483;42.620;25.394;2023-06-26T17:21:35;2.87;;;2.37;;
52590;SDS011;38483;42.620;25.394;2023-06-26T17:24:55;2.20;;;2.00;;
52590;SDS011;38483;42.620;25.394;2023-06-26T17:28:16;2.10;;;1.90;;
52590;SDS011;38483;42.620;25.394;2023-06-26T17:31:37;4.03;;;2.20;;
52590;SDS011;38483;42.620;25.394;2023-06-26T17:34:58;3.67;;;2.67;;
52590;SDS011;38483;42.620;25.394;2023-06-26T17:38:18;3.23;;;2.33;;
52590;SDS011;38483;42.620;25.394;2023-06-26T17:41:40;4.17;;;3.00;;
52590;SDS011;38483;42.620;25.394;2023-06-26T17:45:01;5.30;;;3.00;;
52590;SDS011;38483;42.620;25.394;2023-06-26T17:48:23;4.73;;;2.27;;
52590;SDS011;38483;42.620;25.394;2023-06-26T17:51:44;2.80;;;2.27;;
52590;SDS011;38483;42.620;25.394;2023-06-26T17:55:04;3.97;;;2.20;;
52590;SDS011;38483;42.620;25.394;2023-06-26T17:58:29;4.47;;;2.80;;
52590;SDS011;38483;42.620;25.394;2023-06-26T18:01:50;6.60;;;2.83;;
52590;SDS011;38483;42.620;25.394;2023-06-26T18:05:11;5.13;;;2.40;;
52590;SDS011;38483;42.620;25.394;2023-06-26T18:08:32;3.30;;;3.00;;
52590;SDS011;38483;42.620;25.394;2023-06-26T18:11:53;3.80;;;2.93;;
52590;SDS011;38483;42.620;25.394;2023-06-26T18:15:15;3.90;;;3.20;;
52590;SDS011;38483;42.620;25.394;2023-06-26T18:18:39;3.30;;;2.57;;
52590;SDS011;38483;42.620;25.394;2023-06-26T18:22:01;3.70;;;3.37;;
52590;SDS011;38483;42.620;25.394;2023-06-26T18:25:23;8.83;;;4.90;;
52590;SDS011;38483;42.620;25.394;2023-06-26T18:28:46;7.93;;;4.20;;
52590;SDS011;38483;42.620;25.394;2023-06-26T18:32:05;9.03;;;4.37;;
52590;SDS011;38483;42.620;25.394;2023-06-26T18:35:25;5.90;;;3.80;;
52590;SDS011;38483;42.620;25.394;2023-06-26T18:38:49;5.87;;;4.20;;
52590;SDS011;38483;42.620;25.394;2023-06-26T18:42:11;6.97;;;4.07;;
52590;SDS011;38483;42.620;25.394;2023-06-26T18:45:34;6.23;;;3.10;;
52590;SDS011;38483;42.620;25.394;2023-06-26T18:49:01;4.17;;;3.10;;
52590;SDS011;38483;42.620;25.394;2023-06-26T18:52:22;3.57;;;2.90;;
52590;SDS011;38483;42.620;25.394;2023-06-26T18:55:45;12.10;;;7.60;;
52590;SDS011;38483;42.620;25.394;2023-06-26T18:59:04;6.37;;;4.37;;
52590;SDS011;38483;42.620;25.394;2023-06-26T19:02:25;8.47;;;5.27;;
52590;SDS011;38483;42.620;25.394;2023-06-26T19:05:47;7.67;;;4.80;;
52590;SDS011;38483;42.620;25.394;2023-06-26T19:09:08;6.53;;;4.03;;
52590;SDS011;38483;42.620;25.394;2023-06-26T19:12:30;6.43;;;4.43;;
52590;SDS011;38483;42.620;25.394;2023-06-26T19:15:54;7.33;;;4.10;;
52590;SDS011;38483;42.620;25.394;2023-06-26T19:19:15;10.67;;;6.20;;